Time;durP1;ratioP1;P1;durP2;ratioP2;P2;SDS_P1;SDS_P2;PMS_P1;PMS_P2;Temp;Humidity;BMP_temperature;BMP_pressure;BME280_temperature;BME280_humidity;BME280_pressure;Samples;Min_cycle;Max_cycle;Signal;HPM_P1;HPM_P2
2021/12/13 00:00:10;;;;;;;1.50;1.40;;;;;;;19.78;42.23;102307.97;5018801;28;20041;-63
2021/12/13 00:02:51;;;;;;;1.50;1.40;;;;;;;19.76;42.34;102302.81;5014674;28;20056;-63
2021/12/13 00:05:43;;;;;;;1.65;1.48;;;;;;;19.73;42.32;102300.44;5015083;28;20033;-63
2021/12/13 00:08:14;;;;;;;1.58;1.48;;;;;;;19.71;42.45;102305.03;5012678;28;20488;-64
2021/12/13 00:10:59;;;;;;;2.05;1.52;;;;;;;19.69;42.25;102308.81;5015800;28;20037;-63
2021/12/13 00:13:38;;;;;;;1.70;1.30;;;;;;;19.64;42.57;102313.69;5016521;28;20060;-64
2021/12/13 00:16:07;;;;;;;1.80;1.50;;;;;;;19.61;42.57;102312.19;5014231;28;20592;-63
2021/12/13 00:18:38;;;;;;;1.60;1.50;;;;;;;19.62;42.55;102316.50;5012818;28;20195;-64
2021/12/13 00:21:12;;;;;;;1.65;1.55;;;;;;;19.59;42.60;102311.50;5012577;28;20651;-64
2021/12/13 00:23:46;;;;;;;1.55;1.45;;;;;;;19.55;42.56;102307.44;5013306;28;20535;-64
2021/12/13 00:26:21;;;;;;;1.50;1.40;;;;;;;19.56;42.51;102309.09;5012252;28;20383;-64
2021/12/13 00:28:48;;;;;;;1.83;1.67;;;;;;;19.54;42.53;102319.81;5015942;28;20161;-63
2021/12/13 00:31:36;;;;;;;1.65;1.52;;;;;;;19.49;42.72;102318.56;5016409;28;20065;-63
2021/12/13 00:34:18;;;;;;;1.50;1.40;;;;;;;19.51;42.55;102322.72;5012643;28;20025;-64
2021/12/13 00:36:53;;;;;;;1.50;1.40;;;;;;;19.47;42.62;102320.50;5008672;28;20026;-64
2021/12/13 00:39:24;;;;;;;1.92;1.50;;;;;;;19.44;42.80;102316.34;5011896;28;20420;-64
2021/12/13 00:41:51;;;;;;;2.63;1.67;;;;;;;19.43;42.87;102319.13;5015125;28;20049;-64
2021/12/13 00:44:37;;;;;;;1.90;1.70;;;;;;;19.43;42.79;102327.06;5015962;28;20045;-64
2021/12/13 00:47:07;;;;;;;2.70;1.35;;;;;;;19.42;42.69;102334.16;5013946;28;20053;-64
2021/12/13 00:49:35;;;;;;;1.83;1.50;;;;;;;19.41;42.72;102334.28;5010461;28;20542;-64
2021/12/13 00:52:02;;;;;;;1.88;1.60;;;;;;;19.38;42.81;102332.75;5016855;28;20112;-63
2021/12/13 00:54:38;;;;;;;1.45;1.33;;;;;;;19.37;42.84;102327.59;5015101;28;20033;-63
2021/12/13 00:57:04;;;;;;;1.60;1.50;;;;;;;19.37;42.87;102327.59;5011553;28;20030;-64
2021/12/13 00:59:42;;;;;;;3.67;1.88;;;;;;;19.38;42.82;102327.44;5015322;28;20549;-63
2021/12/13 01:02:26;;;;;;;1.85;1.45;;;;;;;19.33;42.86;102324.41;5011083;28;20042;-64
2021/12/13 01:04:58;;;;;;;1.55;1.40;;;;;;;19.32;42.98;102328.84;5015249;28;20057;-64
2021/12/13 01:07:32;;;;;;;2.50;1.60;;;;;;;19.33;42.89;102334.97;5013514;28;20041;-63
2021/12/13 01:10:17;;;;;;;2.28;1.73;;;;;;;19.21;43.08;102326.38;5015030;28;20042;-63
2021/12/13 01:12:45;;;;;;;1.70;1.60;;;;;;;19.27;43.05;102343.47;5014081;28;20053;-63
2021/12/13 01:15:15;;;;;;;2.42;1.90;;;;;;;19.28;42.95;102339.84;5009193;28;20034;-63
2021/12/13 01:17:54;;;;;;;1.60;1.50;;;;;;;19.27;43.03;102336.38;5013682;28;20052;-63
2021/12/13 01:20:43;;;;;;;2.00;1.53;;;;;;;19.26;42.88;102336.53;5017185;28;20037;-63
2021/12/13 01:23:16;;;;;;;2.38;1.80;;;;;;;19.21;42.99;102338.72;5014719;28;20037;-63
2021/12/13 01:26:02;;;;;;;1.83;1.50;;;;;;;19.24;43.05;102352.50;5010902;28;20855;-64
2021/12/13 01:28:37;;;;;;;1.70;1.60;;;;;;;19.21;43.05;102341.38;5012522;28;20045;-63
2021/12/13 01:31:09;;;;;;;2.30;1.90;;;;;;;19.21;43.00;102344.88;5013351;28;20045;-63
2021/12/13 01:33:39;;;;;;;1.55;1.45;;;;;;;19.19;43.06;102352.06;5005277;28;20042;-64
2021/12/13 01:36:08;;;;;;;1.70;1.60;;;;;;;19.20;42.66;102351.09;5015847;28;20037;-63
2021/12/13 01:38:45;;;;;;;1.88;1.70;;;;;;;19.16;43.02;102355.00;5011226;28;20068;-63
2021/12/13 01:41:17;;;;;;;2.25;1.67;;;;;;;19.15;43.26;102355.97;5013575;28;20047;-63
2021/12/13 01:43:49;;;;;;;1.92;1.55;;;;;;;19.15;43.25;102357.78;5010805;28;20106;-64
2021/12/13 01:46:16;;;;;;;1.45;1.35;;;;;;;19.15;43.27;102357.78;5009162;28;20391;-64
2021/12/13 01:48:45;;;;;;;3.30;1.85;;;;;;;19.09;43.18;102356.53;5014929;28;20133;-64
2021/12/13 01:51:14;;;;;;;2.42;1.50;;;;;;;19.11;43.16;102366.94;5014887;28;20034;-64
2021/12/13 01:53:50;;;;;;;2.13;1.90;;;;;;;19.03;43.16;102351.81;5011565;28;20052;-63
2021/12/13 02:01:57;;;;;;;2.35;1.50;;;;;;;19.07;43.31;102366.41;5013764;28;20050;-64
2021/12/13 02:04:23;;;;;;;2.08;1.70;;;;;;;19.07;43.22;102374.31;5012902;28;20029;-63
2021/12/13 02:06:51;;;;;;;2.17;1.70;;;;;;;19.05;43.19;102370.97;5011455;28;20364;-63
2021/12/13 02:09:22;;;;;;;2.47;1.92;;;;;;;19.08;43.13;102364.59;5010311;28;20045;-64
2021/12/13 02:11:53;;;;;;;3.05;1.90;;;;;;;19.06;43.12;102371.81;5012617;28;20148;-63
2021/12/13 02:14:24;;;;;;;2.03;1.70;;;;;;;19.01;43.46;102366.91;5012214;28;20531;-64
2021/12/13 02:17:00;;;;;;;3.13;1.70;;;;;;;18.99;43.47;102367.06;5009737;28;20036;-63
2021/12/13 02:19:39;;;;;;;1.90;1.45;;;;;;;19.02;43.28;102365.94;5014359;28;20132;-63
2021/12/13 02:22:21;;;;;;;3.37;2.07;;;;;;;19.02;43.45;102373.88;5015301;28;20037;-64
2021/12/13 02:24:49;;;;;;;3.30;1.80;;;;;;;18.99;43.56;102374.16;5015711;28;20033;-63
2021/12/13 02:27:21;;;;;;;2.70;1.80;;;;;;;18.99;43.36;102372.34;5009557;28;20105;-63
2021/12/13 02:29:48;;;;;;;1.83;1.65;;;;;;;18.97;43.23;102370.81;5012931;28;20090;-63
2021/12/13 02:32:14;;;;;;;4.88;2.05;;;;;;;18.98;43.47;102372.47;5015142;28;20048;-63
2021/12/13 02:34:42;;;;;;;2.83;1.55;;;;;;;18.98;43.32;102381.22;5017317;28;20037;-63
2021/12/13 02:37:11;;;;;;;1.75;1.50;;;;;;;18.97;43.25;102378.72;5011759;28;20063;-63
2021/12/13 02:39:44;;;;;;;1.70;1.60;;;;;;;18.97;43.41;102381.38;5015152;28;20709;-63
2021/12/13 02:42:12;;;;;;;2.42;1.77;;;;;;;18.84;43.50;102363.13;5013593;28;20587;-63
2021/12/13 02:44:45;;;;;;;2.30;1.85;;;;;;;18.94;43.49;102381.66;5016571;28;20723;-63
2021/12/13 02:47:18;;;;;;;1.75;1.63;;;;;;;18.94;43.28;102376.38;5013706;28;20045;-63
2021/12/13 02:49:44;;;;;;;3.35;1.85;;;;;;;18.94;43.42;102382.47;5010661;28;20033;-63
2021/12/13 02:52:14;;;;;;;1.77;1.50;;;;;;;18.92;43.39;102387.06;5013310;28;20037;-63
2021/12/13 02:54:47;;;;;;;4.05;1.90;;;;;;;18.93;43.56;102385.25;5013281;28;20064;-63
2021/12/13 02:57:24;;;;;;;1.75;1.60;;;;;;;18.92;43.37;102386.25;5012808;28;20510;-63
2021/12/13 03:00:26;;;;;;;1.90;1.70;;;;;;;18.90;43.60;102383.72;5011907;28;20029;-63
2021/12/13 03:02:55;;;;;;;1.95;1.83;;;;;;;18.91;43.54;102385.41;5014620;28;20045;-63
2021/12/13 03:05:28;;;;;;;;;;;;;;;18.89;43.58;102386.50;5011046;28;20524;-64
2021/12/13 03:07:57;;;;;;;1.85;1.70;;;;;;;18.90;43.41;102382.91;5014137;28;20176;-63
2021/12/13 03:10:36;;;;;;;2.07;1.70;;;;;;;18.89;43.51;102386.50;5011250;28;20095;-63
2021/12/13 03:13:02;;;;;;;3.47;1.77;;;;;;;18.88;43.50;102392.75;5012141;28;20038;-64
2021/12/13 03:15:30;;;;;;;3.00;2.00;;;;;;;18.88;43.41;102388.31;5011412;28;20113;-63
2021/12/13 03:18:00;;;;;;;3.00;1.95;;;;;;;18.88;43.60;102403.31;5015646;28;21225;-64
2021/12/13 03:20:34;;;;;;;2.08;1.75;;;;;;;18.84;43.63;102392.19;5012211;28;20120;-63
2021/12/13 03:23:21;;;;;;;2.15;1.65;;;;;;;18.83;43.64;102395.78;5015528;28;20068;-64
2021/12/13 03:26:24;;;;;;;3.05;2.00;;;;;;;18.84;43.69;102399.25;5008636;28;20152;-63
2021/12/13 03:28:49;;;;;;;2.58;1.73;;;;;;;18.83;43.54;102395.78;5015689;28;20451;-63
2021/12/13 03:31:25;;;;;;;2.22;1.67;;;;;;;18.82;43.59;102395.91;5011451;28;20124;-64
2021/12/13 03:33:51;;;;;;;2.00;1.80;;;;;;;18.82;43.73;102398.56;5013423;28;20037;-64
2021/12/13 03:36:21;;;;;;;2.22;1.60;;;;;;;18.83;43.49;102394.94;5013143;28;20029;-64
2021/12/13 03:38:50;;;;;;;2.08;1.70;;;;;;;18.81;43.49;102391.63;5014185;28;20040;-63
2021/12/13 03:41:22;;;;;;;3.70;1.80;;;;;;;18.79;43.64;102383.00;5012425;28;20041;-63
2021/12/13 03:44:08;;;;;;;1.98;1.58;;;;;;;18.82;43.48;102394.13;5008028;28;20058;-64
2021/12/13 03:46:35;;;;;;;2.67;1.67;;;;;;;18.83;43.34;102387.03;5014369;28;20043;-63
2021/12/13 03:49:05;;;;;;;2.17;1.60;;;;;;;18.84;43.43;102388.69;5012826;28;20055;-63
2021/12/13 03:51:33;;;;;;;;;;;;;;;18.80;43.53;102397.88;5010625;28;20720;-63
2021/12/13 03:54:01;;;;;;;3.17;1.80;;;;;;;18.78;43.67;102386.63;5015674;28;19991;-63
2021/12/13 03:56:31;;;;;;;3.00;1.70;;;;;;;18.75;43.67;102389.53;5012516;28;20109;-63
2021/12/13 03:59:28;;;;;;;3.60;1.60;;;;;;;18.74;43.79;102393.13;5012645;28;20092;-63
2021/12/13 04:02:05;;;;;;;3.50;1.80;;;;;;;18.76;43.78;102396.47;5001699;28;20045;-63
2021/12/13 04:04:39;;;;;;;1.55;1.45;;;;;;;18.75;43.62;102402.72;5010613;28;20133;-63
2021/12/13 04:07:10;;;;;;;2.22;1.60;;;;;;;18.74;43.63;102401.88;5010967;28;20040;-63
2021/12/13 04:09:36;;;;;;;2.03;1.80;;;;;;;18.72;43.64;102409.09;5009736;28;20531;-63
2021/12/13 04:12:05;;;;;;;1.67;1.58;;;;;;;18.74;43.84;102409.81;5014466;28;20490;-63
2021/12/13 04:14:38;;;;;;;3.37;1.80;;;;;;;18.73;43.71;102404.66;5016451;28;20034;-63
2021/12/13 04:17:21;;;;;;;1.88;1.35;;;;;;;18.75;43.75;102410.63;5019026;28;20087;-64
2021/12/13 04:19:55;;;;;;;2.53;1.63;;;;;;;18.73;43.69;102407.31;5016550;28;20069;-63
2021/12/13 04:22:26;;;;;;;2.20;1.80;;;;;;;18.71;43.67;102415.34;5018395;28;20601;-63
2021/12/13 04:24:57;;;;;;;2.83;1.73;;;;;;;18.71;43.62;102405.63;5016828;28;20064;-63
2021/12/13 04:27:27;;;;;;;2.05;1.77;;;;;;;18.71;43.94;102405.63;5012246;28;20116;-63
2021/12/13 04:29:59;;;;;;;2.30;1.70;;;;;;;18.70;43.84;102403.13;5017214;28;20045;-64
2021/12/13 04:32:41;;;;;;;2.42;1.80;;;;;;;18.69;43.76;102407.56;5018011;28;20124;-63
2021/12/13 04:35:10;;;;;;;1.98;1.50;;;;;;;18.66;43.69;102399.06;5016898;28;20040;-64
2021/12/13 04:37:42;;;;;;;1.80;1.65;;;;;;;18.65;43.86;102403.50;5014906;28;20923;-63
2021/12/13 04:40:12;;;;;;;1.70;1.60;;;;;;;18.65;43.83;102411.44;5019601;28;21075;-63
2021/12/13 04:42:39;;;;;;;3.55;1.77;;;;;;;18.66;43.74;102399.91;5015692;28;20048;-63
2021/12/13 04:45:11;;;;;;;2.17;1.67;;;;;;;18.71;43.82;102404.81;5015681;28;20179;-63
2021/12/13 04:47:47;;;;;;;2.83;1.70;;;;;;;18.72;43.67;102395.91;5015354;28;20355;-64
2021/12/13 04:50:29;;;;;;;3.38;1.77;;;;;;;18.78;43.53;102397.16;5015160;28;20531;-63
2021/12/13 04:52:58;;;;;;;1.33;1.20;;;;;;;18.82;43.49;102404.66;5016356;28;20100;-64
2021/12/13 04:55:28;;;;;;;2.20;1.67;;;;;;;18.85;43.61;102396.50;5016693;28;20101;-63
2021/12/13 04:57:56;;;;;;;;;;;;;;;18.93;43.33;102398.47;5017807;28;20061;-64
2021/12/13 05:00:25;;;;;;;1.40;1.30;;;;;;;18.98;43.39;102396.25;5017372;28;19997;-64
2021/12/13 05:02:57;;;;;;;2.72;1.73;;;;;;;19.14;43.36;102409.75;5016885;28;20361;-64
2021/12/13 05:05:23;;;;;;;1.52;1.42;;;;;;;19.16;43.10;102397.25;5012749;28;20493;-63
2021/12/13 05:07:50;;;;;;;2.10;1.58;;;;;;;19.33;43.16;102404.47;5012502;28;20722;-63
2021/12/13 05:10:17;;;;;;;2.00;1.30;;;;;;;19.41;43.23;102405.63;5015889;28;20128;-64
2021/12/13 05:13:06;;;;;;;1.55;1.45;;;;;;;19.52;43.02;102414.22;5014454;28;20050;-64
2021/12/13 05:15:33;;;;;;;2.65;1.80;;;;;;;19.64;42.96;102420.25;5012283;28;20041;-64
2021/12/13 05:18:01;;;;;;;2.05;1.50;;;;;;;19.68;42.94;102420.78;5013638;28;20102;-64
2021/12/13 05:20:33;;;;;;;1.83;1.35;;;;;;;19.74;42.95;102414.94;5014353;28;20494;-63
2021/12/13 05:23:04;;;;;;;1.20;1.10;;;;;;;19.79;42.99;102420.66;5014301;28;20047;-64
2021/12/13 05:25:35;;;;;;;1.77;1.20;;;;;;;19.78;42.95;102419.81;5011643;28;20038;-64
2021/12/13 05:28:22;;;;;;;2.03;1.30;;;;;;;19.84;42.98;102413.97;5017085;28;20379;-64
2021/12/13 05:30:57;;;;;;;1.50;1.40;;;;;;;19.89;42.87;102417.00;5016369;28;20047;-64
2021/12/13 05:33:25;;;;;;;1.70;1.42;;;;;;;19.84;42.91;102413.97;5016402;28;20053;-64
2021/12/13 05:35:56;;;;;;;1.92;1.55;;;;;;;19.97;42.68;102423.41;5012532;28;20128;-64
2021/12/13 05:38:34;;;;;;;2.15;1.20;;;;;;;19.97;42.71;102426.88;5009720;28;20048;-64
2021/12/13 05:41:05;;;;;;;1.65;1.05;;;;;;;19.97;42.67;102418.13;5010019;28;20192;-64
2021/12/13 05:43:38;;;;;;;2.17;1.10;;;;;;;20.00;42.70;102423.13;5007577;28;20061;-64
2021/12/13 05:46:09;;;;;;;2.10;1.23;;;;;;;19.99;42.77;102418.81;5010773;28;20037;-64
2021/12/13 05:48:34;;;;;;;2.70;1.60;;;;;;;20.00;42.64;102426.59;5013081;28;20124;-64
2021/12/13 05:51:05;;;;;;;1.48;1.38;;;;;;;20.03;42.73;102430.75;5016556;28;20595;-64
2021/12/13 05:53:45;;;;;;;1.35;1.00;;;;;;;20.05;42.46;102426.16;5018380;28;20615;-63
2021/12/13 05:56:14;;;;;;;1.05;1.00;;;;;;;20.07;42.51;102429.50;5017434;28;20084;-64
2021/12/13 05:58:44;;;;;;;2.33;1.63;;;;;;;20.10;42.50;102429.19;5018820;28;20083;-64
2021/12/13 06:01:15;;;;;;;1.52;1.10;;;;;;;20.04;42.51;102422.69;5016692;28;20037;-64
2021/12/13 06:03:47;;;;;;;1.52;1.30;;;;;;;20.11;42.39;102425.63;5018633;28;20037;-64
2021/12/13 06:06:20;;;;;;;1.90;1.30;;;;;;;20.11;42.39;102431.72;5013078;28;20503;-64
2021/12/13 06:08:51;;;;;;;3.80;1.42;;;;;;;20.15;42.48;102440.22;5013541;28;20249;-64
2021/12/13 06:11:32;;;;;;;1.35;1.25;;;;;;;20.20;42.30;102445.91;5016756;28;20045;-64
2021/12/13 06:13:59;;;;;;;1.30;1.10;;;;;;;20.22;42.27;102439.47;5014554;28;20082;-64
2021/12/13 06:16:40;;;;;;;1.45;1.35;;;;;;;20.24;42.32;102447.28;5017936;28;20109;-63
2021/12/13 06:19:25;;;;;;;1.33;1.10;;;;;;;20.22;42.35;102446.59;5013824;28;20477;-63
2021/12/13 06:22:05;;;;;;;1.83;1.10;;;;;;;20.19;42.39;102431.00;5011434;28;20405;-64
2021/12/13 06:24:37;;;;;;;1.25;1.10;;;;;;;20.17;42.50;102430.31;5009110;28;20524;-64
2021/12/13 06:27:24;;;;;;;2.75;1.50;;;;;;;20.17;42.38;102435.59;5016089;28;20066;-64
2021/12/13 06:30:05;;;;;;;1.50;1.15;;;;;;;20.19;42.35;102433.66;5006556;28;20191;-63
2021/12/13 06:32:39;;;;;;;2.28;1.20;;;;;;;20.19;42.28;102431.84;5013434;28;20048;-64
2021/12/13 06:35:42;;;;;;;2.35;1.23;;;;;;;20.25;42.19;102437.53;5014018;28;20033;-63
2021/12/13 06:38:19;;;;;;;1.95;1.30;;;;;;;20.26;42.23;102447.13;5010921;28;20539;-64
2021/12/13 06:40:58;;;;;;;2.85;1.45;;;;;;;20.27;42.16;102446.16;5012878;28;20132;-64
2021/12/13 06:43:48;;;;;;;1.83;1.30;;;;;;;20.31;42.15;102458.97;5013394;28;20081;-64
2021/12/13 06:46:22;;;;;;;1.73;1.20;;;;;;;20.31;42.17;102458.13;5012520;28;20042;-64
2021/12/13 06:48:59;;;;;;;1.25;1.15;;;;;;;20.31;42.36;102460.78;5012710;28;20029;-63
2021/12/13 06:51:45;;;;;;;1.33;1.10;;;;;;;20.32;42.20;102479.16;5016631;28;20521;-63
2021/12/13 06:54:25;;;;;;;2.00;1.00;;;;;;;20.32;42.17;102476.50;5012523;28;20077;-64
2021/12/13 06:57:08;;;;;;;2.92;1.40;;;;;;;20.31;42.26;102472.19;5011177;28;20036;-63
2021/12/13 06:59:38;;;;;;;1.52;1.20;;;;;;;20.28;42.28;102477.75;5008885;28;20521;-64
2021/12/13 07:02:12;;;;;;;3.08;1.50;;;;;;;20.26;42.26;102474.41;5009533;28;20041;-64
2021/12/13 07:04:56;;;;;;;1.48;1.08;;;;;;;20.18;42.27;102467.22;5013840;28;20045;-63
2021/12/13 07:07:31;;;;;;;1.73;1.38;;;;;;;20.26;42.17;102477.06;5013761;28;20462;-64
2021/12/13 07:10:04;;;;;;;0.98;0.90;;;;;;;20.31;42.14;102485.41;5013419;28;20099;-64
2021/12/13 07:12:31;;;;;;;1.55;0.93;;;;;;;20.33;42.17;102486.13;5014299;28;20438;-64
2021/12/13 07:14:58;;;;;;;1.30;1.10;;;;;;;20.33;42.03;102488.75;5016472;28;20818;-64
2021/12/13 07:17:34;;;;;;;2.08;1.50;;;;;;;20.36;42.07;102492.94;5014955;28;20091;-64
2021/12/13 07:20:15;;;;;;;1.40;1.25;;;;;;;20.36;42.15;102496.41;5010001;28;20080;-63
2021/12/13 07:22:42;;;;;;;1.25;1.08;;;;;;;20.25;42.22;102470.09;5013277;28;20072;-63
2021/12/13 07:25:15;;;;;;;1.20;1.10;;;;;;;20.35;42.18;102493.91;5017739;28;20471;-64
2021/12/13 07:27:45;;;;;;;1.58;1.13;;;;;;;20.36;42.20;102496.41;5011337;28;20048;-64
2021/12/13 07:30:21;;;;;;;1.88;1.10;;;;;;;20.35;42.17;102494.72;5013666;28;20033;-64
2021/12/13 07:32:58;;;;;;;1.02;0.85;;;;;;;20.30;42.24;102496.97;5009136;28;20372;-63
2021/12/13 07:35:43;;;;;;;1.73;1.30;;;;;;;20.30;42.43;102493.50;5010342;28;20041;-64
2021/12/13 07:38:09;;;;;;;1.17;1.05;;;;;;;20.31;42.22;102495.19;5012416;28;20045;-64
2021/12/13 07:40:49;;;;;;;1.65;1.33;;;;;;;20.31;41.97;102501.31;5007498;28;20038;-64
2021/12/13 07:43:28;;;;;;;1.13;1.02;;;;;;;20.29;42.24;102499.75;5005615;28;20104;-64
2021/12/13 07:46:01;;;;;;;1.40;1.15;;;;;;;20.29;42.24;102494.44;5010680;28;20045;-63
2021/12/13 07:48:51;;;;;;;2.10;1.42;;;;;;;20.30;42.14;102494.34;5009991;28;20048;-63
2021/12/13 07:51:19;;;;;;;1.10;0.95;;;;;;;20.28;42.15;102496.25;5009854;28;20123;-63
2021/12/13 07:53:57;;;;;;;2.30;1.33;;;;;;;20.27;42.15;102507.81;5011055;28;20037;-65
2021/12/13 07:56:28;;;;;;;2.45;1.00;;;;;;;20.21;42.32;102509.25;5011180;28;20053;-64
2021/12/13 07:59:05;;;;;;;1.67;1.40;;;;;;;20.24;42.27;102513.41;5011368;28;20286;-64
2021/12/13 08:01:36;;;;;;;1.67;1.13;;;;;;;20.23;42.09;102502.00;5010229;28;20137;-64
2021/12/13 08:04:12;;;;;;;1.17;1.08;;;;;;;20.24;42.22;102505.47;5013242;28;20044;-63
2021/12/13 08:07:27;;;;;;;1.40;1.30;;;;;;;20.29;42.31;102523.56;5013156;28;20037;-64
2021/12/13 08:09:57;;;;;;;1.30;1.20;;;;;;;20.31;42.15;102533.03;5008422;28;20052;-64
2021/12/13 08:12:28;;;;;;;2.53;1.13;;;;;;;20.33;42.17;102533.72;5019186;28;20045;-64
2021/12/13 08:15:08;;;;;;;1.63;1.52;;;;;;;20.38;42.10;102531.50;5019926;28;20825;-64
2021/12/13 08:17:42;;;;;;;3.17;1.40;;;;;;;20.31;42.26;102517.16;5017317;28;20155;-64
2021/12/13 08:20:14;;;;;;;2.47;1.40;;;;;;;20.37;42.22;102529.81;5016924;28;20029;-64
2021/12/13 08:22:45;;;;;;;2.53;1.67;;;;;;;20.40;42.14;102521.59;5019779;28;20056;-63
2021/12/13 08:25:21;;;;;;;1.65;1.27;;;;;;;20.39;42.20;102532.31;5018438;28;20041;-64
2021/12/13 08:27:55;;;;;;;1.60;1.20;;;;;;;20.36;42.24;102537.91;5018567;28;20422;-64
2021/12/13 08:30:42;;;;;;;2.25;1.55;;;;;;;20.34;42.29;102526.63;5017864;28;20037;-65
2021/12/13 08:33:19;;;;;;;2.67;1.42;;;;;;;20.32;42.22;102533.88;5013629;28;20100;-65
2021/12/13 08:35:56;;;;;;;2.22;1.42;;;;;;;20.33;42.29;102540.84;5020539;28;20036;-65
2021/12/13 08:38:44;;;;;;;1.67;1.55;;;;;;;20.33;42.63;102532.91;5019513;28;20409;-69
2021/12/13 08:41:44;;;;;;;2.67;1.65;;;;;;;20.42;43.00;102542.66;5021584;28;20475;-69
2021/12/13 08:44:12;;;;;;;4.35;2.22;;;;;;;20.55;43.07;102540.53;5016357;28;20577;-70
2021/12/13 08:46:55;;;;;;;2.47;1.75;;;;;;;20.61;43.22;102545.25;5018081;28;20137;-69
2021/12/13 08:49:29;;;;;;;3.67;1.80;;;;;;;20.66;43.29;102552.78;5017743;28;20039;-67
2021/12/13 08:52:20;;;;;;;3.55;1.90;;;;;;;20.62;43.21;102554.03;5019790;28;20052;-67
2021/12/13 08:54:58;;;;;;;3.90;1.90;;;;;;;20.58;43.23;102545.53;5022418;28;20644;-66
2021/12/13 08:57:57;;;;;;;3.92;1.88;;;;;;;20.57;43.26;102558.91;5019318;28;20227;-66
2021/12/13 09:00:35;;;;;;;5.82;2.10;;;;;;;20.51;43.08;102558.53;5014994;28;20045;-65
2021/12/13 09:03:01;;;;;;;3.00;2.20;;;;;;;20.53;43.12;102558.38;5016180;28;20041;-66
2021/12/13 09:05:32;;;;;;;3.88;2.13;;;;;;;20.50;43.06;102551.56;5018048;28;20040;-66
2021/12/13 09:08:05;;;;;;;2.28;1.77;;;;;;;20.51;43.08;102560.34;5013691;28;20142;-66
2021/12/13 09:10:39;;;;;;;4.15;1.80;;;;;;;20.47;43.10;102566.91;5018604;28;20120;-67
2021/12/13 09:13:05;;;;;;;3.65;1.95;;;;;;;20.46;43.11;102570.50;5020002;28;20114;-67
2021/12/13 09:15:34;;;;;;;2.72;2.00;;;;;;;20.48;43.08;102563.28;5019881;28;20544;-66
2021/12/13 09:18:00;;;;;;;3.58;2.03;;;;;;;20.42;43.10;102567.28;5019993;28;20034;-67
2021/12/13 09:20:39;;;;;;;2.90;1.90;;;;;;;20.45;42.97;102556.44;5019557;28;20099;-68
2021/12/13 09:23:14;;;;;;;;;;;;;;;20.44;43.02;102564.50;5018152;28;20733;-67
2021/12/13 09:25:43;;;;;;;2.58;2.10;;;;;;;20.42;42.96;102571.75;5018446;28;20534;-67
2021/12/13 09:28:29;;;;;;;4.28;2.30;;;;;;;20.42;42.85;102567.28;5019467;28;20120;-67
2021/12/13 09:31:02;;;;;;;2.97;2.10;;;;;;;20.41;42.90;102560.34;5019655;28;20532;-68
2021/12/13 09:33:33;;;;;;;3.55;2.10;;;;;;;20.20;42.89;102530.53;5019567;28;20119;-68
2021/12/13 09:36:09;;;;;;;4.20;2.45;;;;;;;20.36;42.94;102562.56;5015042;28;20033;-67
2021/12/13 09:38:53;;;;;;;3.53;2.30;;;;;;;20.39;42.95;102578.13;5019028;28;20037;-67
2021/12/13 09:41:22;;;;;;;2.80;2.20;;;;;;;20.34;43.08;102582.19;5018107;28;20503;-67
2021/12/13 09:43:57;;;;;;;4.22;2.55;;;;;;;20.34;42.93;102587.47;5015752;28;20076;-67
2021/12/13 09:46:46;;;;;;;3.22;2.35;;;;;;;20.36;42.88;102590.81;5013111;28;20624;-67
2021/12/13 09:49:19;;;;;;;2.58;2.00;;;;;;;20.32;42.92;102603.50;5015264;28;20029;-67
2021/12/13 09:51:51;;;;;;;2.72;2.22;;;;;;;20.35;42.78;102608.50;5013147;28;20059;-66
2021/12/13 09:54:21;;;;;;;3.92;2.60;;;;;;;20.20;42.79;102575.50;5016916;28;20045;-65
2021/12/13 09:56:50;;;;;;;6.35;2.60;;;;;;;20.33;42.67;102602.53;5019506;28;20037;-66
2021/12/13 09:59:24;;;;;;;4.07;2.27;;;;;;;20.29;42.77;102603.78;5018785;28;20102;-67
2021/12/13 10:01:52;;;;;;;3.90;2.13;;;;;;;20.27;42.83;102600.41;5018152;28;20491;-66
2021/12/13 10:04:45;;;;;;;4.50;2.42;;;;;;;20.31;42.74;102601.00;5019577;28;20025;-67
2021/12/13 10:07:14;;;;;;;4.53;2.10;;;;;;;20.33;42.66;102599.03;5016828;28;20192;-67
2021/12/13 10:09:49;;;;;;;;;;;;;;;20.36;43.21;102599.59;5020873;28;20037;-73
2021/12/13 10:12:19;;;;;;;6.47;2.53;;;;;;;20.56;43.02;102599.59;4979560;28;19973;-72
2021/12/13 10:14:56;;;;;;;2.72;2.15;;;;;;;20.67;43.20;102589.69;5020778;28;20029;-69
2021/12/13 10:17:25;;;;;;;3.45;2.40;;;;;;;20.75;43.28;102591.63;5018200;28;20081;-71
2021/12/13 10:19:55;;;;;;;3.90;2.67;;;;;;;20.83;43.53;102585.63;5016279;28;20045;-70
2021/12/13 10:22:22;;;;;;;;;;;;;;;20.95;43.35;102581.81;5018878;28;20033;-69
2021/12/13 10:24:54;;;;;;;4.55;2.83;;;;;;;21.01;43.42;102586.53;5021684;28;19913;-69
2021/12/13 10:27:20;;;;;;;2.50;2.17;;;;;;;21.06;43.35;102590.41;4989167;28;20729;-70
2021/12/13 10:29:53;;;;;;;3.35;2.38;;;;;;;21.11;43.37;102579.38;5019438;28;20053;-69
2021/12/13 10:32:24;;;;;;;4.95;3.08;;;;;;;21.16;43.43;102581.56;4993532;28;20629;-68
2021/12/13 10:34:55;;;;;;;4.00;2.35;;;;;;;21.18;43.22;102580.44;5019452;28;20033;-72
2021/12/13 10:37:33;;;;;;;4.43;2.53;;;;;;;21.22;43.54;102586.31;4991505;28;20044;-73
2021/12/13 10:40:05;;;;;;;2.80;2.22;;;;;;;21.24;43.36;102579.03;5022949;28;20116;-73
2021/12/13 10:42:35;;;;;;;4.45;2.58;;;;;;;21.30;43.39;102578.47;4997266;28;20073;-72
2021/12/13 10:45:07;;;;;;;3.05;2.40;;;;;;;21.33;43.43;102578.19;5021478;28;20213;-73
2021/12/13 10:47:39;;;;;;;3.03;2.50;;;;;;;21.41;43.23;102586.25;4990566;28;20517;-73
2021/12/13 10:50:12;;;;;;;4.75;2.40;;;;;;;21.37;43.36;102579.56;5020351;28;20081;-71
2021/12/13 10:52:43;;;;;;;3.83;2.40;;;;;;;21.43;43.54;102581.63;4989816;28;20045;-72
2021/12/13 10:55:16;;;;;;;6.00;2.60;;;;;;;21.46;43.22;102577.84;5020875;28;20045;-72
2021/12/13 10:57:47;;;;;;;4.47;2.63;;;;;;;21.50;43.65;102576.56;4997062;28;20045;-72
2021/12/13 11:00:36;;;;;;;4.55;2.60;;;;;;;21.37;43.66;102548.59;5016534;28;20136;-68
2021/12/13 11:03:10;;;;;;;3.60;2.25;;;;;;;21.60;43.45;102566.75;5018577;28;20510;-69
2021/12/13 11:05:35;;;;;;;4.13;2.55;;;;;;;21.61;43.27;102569.25;4993967;28;20045;-70
2021/12/13 11:08:05;;;;;;;3.35;2.17;;;;;;;21.62;43.37;102572.72;5020575;28;20044;-69
2021/12/13 11:10:38;;;;;;;6.00;2.40;;;;;;;21.60;44.08;102559.63;4996745;28;20155;-68
2021/12/13 11:13:05;;;;;;;4.13;2.70;;;;;;;21.67;43.99;102575.75;5007912;28;20484;-70
2021/12/13 11:15:36;;;;;;;7.40;3.00;;;;;;;21.67;43.77;102573.09;5015253;28;20310;-69
2021/12/13 11:18:06;;;;;;;6.78;2.80;;;;;;;21.68;43.79;102572.94;4987856;28;20037;-70
2021/12/13 11:20:49;;;;;;;5.28;2.53;;;;;;;21.73;43.68;102566.38;5017531;28;20496;-70
2021/12/13 11:23:17;;;;;;;3.10;2.40;;;;;;;21.78;43.73;102580.00;4990737;28;20131;-70
2021/12/13 11:25:47;;;;;;;3.47;2.50;;;;;;;21.79;43.92;102571.06;5017591;28;20049;-70
2021/12/13 11:28:14;;;;;;;3.72;2.50;;;;;;;21.78;43.95;102570.25;4989727;28;20700;-70
2021/12/13 11:30:42;;;;;;;5.43;2.58;;;;;;;21.83;43.74;102567.13;5014701;28;20025;-70
2021/12/13 11:33:39;;;;;;;3.60;2.47;;;;;;;21.86;43.76;102564.16;4985508;28;20184;-68
2021/12/13 11:36:07;;;;;;;5.75;2.58;;;;;;;21.90;43.40;102570.84;5015397;28;20121;-70
2021/12/13 11:38:55;;;;;;;3.90;2.72;;;;;;;21.90;43.80;102579.66;4988295;28;20126;-67
2021/12/13 11:41:51;;;;;;;6.07;2.90;;;;;;;21.87;44.23;102574.63;5015326;28;20064;-69
2021/12/13 11:44:21;;;;;;;4.00;2.50;;;;;;;21.91;43.55;102589.28;5016373;28;20091;-66
2021/12/13 11:47:24;;;;;;;6.25;2.67;;;;;;;21.90;44.13;102579.66;4987794;28;24241;-68
2021/12/13 11:50:01;;;;;;;5.00;2.75;;;;;;;21.93;43.65;102581.16;5018490;28;20033;-65
2021/12/13 11:53:18;;;;;;;3.83;2.38;;;;;;;21.87;43.67;102585.22;4990368;28;20052;-69
2021/12/13 11:55:57;;;;;;;6.72;2.65;;;;;;;21.78;44.15;102583.50;5018559;28;20582;-68
2021/12/13 11:59:00;;;;;;;6.15;2.83;;;;;;;21.72;43.88;102581.44;4986070;28;20051;-67
2021/12/13 12:02:03;;;;;;;4.85;2.65;;;;;;;21.68;43.78;102583.56;5012009;28;20049;-68
2021/12/13 12:05:06;;;;;;;5.25;3.05;;;;;;;21.62;43.76;102583.31;5016603;28;20425;-67
2021/12/13 12:07:46;;;;;;;4.10;2.80;;;;;;;21.62;43.75;102586.81;4993929;28;20037;-67